Terminal Aerodrome Forecast
Issued by NWS Sioux Falls, SD

Home | Current Version | Previous Version | Text Only | Print | Product List | Glossary On
Versions: 1 2 3 4 5 6 7 8 9 10 11 12 13 14 15 16
000
FTUS43 KFSD 262322
TAFFSD
TAF
KFSD 262322Z 2700/2724 01005KT P6SM BKN015 OVC200
     FM271000 VRB03KT 5SM BR BKN010
      TEMPO 2711/2713 4SM BR BKN008
     FM271600 VRB03KT P6SM BKN020
     FM271800 02004KT P6SM SCT020 BKN150
     FM272000 02005KT P6SM SCT150=

USA.gov is the U.S. government's official web portal to all federal, state and local government web resources and services.